BIEG

Egilsstaðir Airport

Egilsstaðir, Iceland
METAR BIEG 250000Z 19006KT 9999 FEW021 SCT065 BKN110 M01/M03 Q0999
Observed Flight Rules
Apr-25 @ 00:00 UTC (55 minutes ago) Visual Flight Rules
Wind Visibility Clouds
190° at 6 knots 10,000+ meters
  • Few at 2,100' AGL
  • Scattered at 6,500' AGL
  • Broken at 11,000' AGL
Temperatures Readings
Current -1°C / 30°F
Dewpoint -3°C / 27°F
Humidity 86%
Altimeter 29.5" Hg
Pressure 999 hPa
Elevation 38
METAR BIEG 250000Z 19006KT 9999 FEW021 SCT065 BKN110 M01/M03 Q0999
Observed Flight Rules
Apr-25 @ 00:00 UTC
(55 minutes ago)
VFR
Wind Visibility
190° at 6 knots 10,000+ meters
Clouds
  • Few at 2,100' AGL
  • Scattered at 6,500' AGL
  • Broken at 11,000' AGL
Temperature Dewpoint
-1°C / 30°F -3°C / 27°F
Humidity Altimeter Pressure
86% 29.5" Hg 999 hPa